Time;durP1;ratioP1;P1;durP2;ratioP2;P2;SDS_P1;SDS_P2;PMS_P1;PMS_P2;Temp;Humidity;BMP_temperature;BMP_pressure;BME280_temperature;BME280_humidity;BME280_pressure;Samples;Min_cycle;Max_cycle;Signal;HPM_P1;HPM_P2
2022/12/01 00:00:03;;;;;;;;;;;;;;;7.37;58.65;101045.03;4969947;28;19918;-59
2022/12/01 00:02:29;;;;;;;;;;;;;;;7.43;58.61;101047.66;4972902;28;19917;-59
2022/12/01 00:04:55;;;;;;;;;;;;;;;7.57;58.52;101062.38;4971803;28;19961;-59
2022/12/01 00:07:20;;;;;;;;;;;;;;;7.44;57.82;101054.53;4974127;28;19968;-59
2022/12/01 00:12:30;;;;;;;;;;;;;;;7.32;57.79;101028.69;4972133;28;19945;-59
2022/12/01 00:14:59;;;;;;;;;;;;;;;7.88;56.56;101063.63;4967957;28;19922;-59
2022/12/01 00:17:26;;;;;;;;;;;;;;;7.63;55.85;101032.53;4969161;28;19922;-60
2022/12/01 00:19:51;;;;;;;;;;;;;;;7.32;56.06;101006.50;4966734;28;20387;-60
2022/12/01 00:22:16;;;;;;;;;;;;;;;7.02;56.78;100986.44;4972207;28;20012;-60
2022/12/01 00:24:42;;;;;;;;;;;;;;;7.59;56.83;101029.91;4967694;28;19918;-59
2022/12/01 00:27:07;;;;;;;;;;;;;;;7.26;57.59;101005.56;4969489;28;19930;-59
2022/12/01 00:29:32;;;;;;;;;;;;;;;7.50;57.01;101031.53;4967511;28;19968;-60
2022/12/01 00:31:57;;;;;;;;;;;;;;;7.28;56.78;101011.59;4966700;28;19975;-59
2022/12/01 00:34:23;;;;;;;;;;;;;;;7.10;56.60;100994.25;4970175;28;19918;-60
2022/12/01 00:36:48;;;;;;;;;;;;;;;7.21;57.19;101007.22;4968651;28;19922;-59
2022/12/01 00:39:14;;;;;;;;;;;;;;;7.45;57.44;101028.03;4967519;28;19945;-59
2022/12/01 00:41:39;;;;;;;;;;;;;;;7.32;58.05;101026.13;4968275;28;20648;-60
2022/12/01 00:44:04;;;;;;;;;;;;;;;7.58;57.37;101038.47;4967532;28;20082;-59
2022/12/01 00:46:30;;;;;;;;;;;;;;;7.05;58.84;101007.00;4967571;28;20070;-59
2022/12/01 00:48:55;;;;;;;;;;;;;;;7.36;57.57;101033.03;4968645;28;19926;-59
2022/12/01 00:51:20;;;;;;;;;;;;;;;7.73;57.73;101056.59;4972024;28;19980;-59
2022/12/01 00:53:45;;;;;;;;;;;;;;;7.51;57.57;101038.38;4970369;28;19922;-59
2022/12/01 00:56:10;;;;;;;;;;;;;;;7.15;57.65;101002.00;4969446;28;19933;-59
2022/12/01 00:58:36;;;;;;;;;;;;;;;7.69;56.71;101045.44;4968953;28;19926;-60
2022/12/01 01:01:01;;;;;;;;;;;;;;;7.76;55.70;101033.56;4968323;28;20016;-60
2022/12/01 01:03:27;;;;;;;;;;;;;;;7.66;54.60;101016.31;4970286;28;20005;-59
2022/12/01 01:05:52;;;;;;;;;;;;;;;7.33;54.63;100992.00;4969850;28;19922;-60
2022/12/01 01:08:18;;;;;;;;;;;;;;;7.39;54.33;100996.31;4968922;28;19917;-60
2022/12/01 01:10:44;;;;;;;;;;;;;;;7.21;54.57;100992.69;4967261;28;19922;-59
2022/12/01 01:13:09;;;;;;;;;;;;;;;7.40;54.28;101009.16;4969483;28;19922;-59
2022/12/01 01:15:34;;;;;;;;;;;;;;;6.98;56.14;100988.91;4967871;28;20296;-60
2022/12/01 01:18:00;;;;;;;;;;;;;;;6.61;58.07;100988.38;4967749;28;19930;-60
2022/12/01 01:20:25;;;;;;;;;;;;;;;7.24;57.71;101043.13;4967568;28;20551;-60
2022/12/01 01:22:50;;;;;;;;;;;;;;;7.19;58.77;101055.88;4972097;28;19935;-59
2022/12/01 01:25:15;;;;;;;;;;;;;;;6.94;60.42;101053.78;4972713;28;19987;-59
2022/12/01 01:27:41;;;;;;;;;;;;;;;7.33;60.46;101084.25;4970180;28;19926;-59
2022/12/01 01:30:06;;;;;;;;;;;;;;;7.46;59.44;101086.16;4966340;28;19929;-59
2022/12/01 01:32:31;;;;;;;;;;;;;;;6.87;60.40;101043.44;4966833;28;20552;-59
2022/12/01 01:34:57;;;;;;;;;;;;;;;6.98;60.44;101060.66;4967417;28;20012;-60
2022/12/01 01:37:22;;;;;;;;;;;;;;;8.01;59.40;101128.78;4968789;28;19964;-59
2022/12/01 01:39:47;;;;;;;;;;;;;;;8.69;53.37;101139.00;4966287;28;19933;-59
2022/12/01 01:42:13;;;;;;;;;;;;;;;7.77;50.07;101024.16;4966698;28;19922;-59
2022/12/01 01:45:07;;;;;;;;;;;;;;;8.27;43.87;101011.88;4971159;28;19918;-59
2022/12/01 01:47:36;;;;;;;;;;;;;;;8.60;35.97;100964.28;4985613;28;19922;-60
2022/12/01 01:50:08;;;;;;;;;;;;;;;7.66;33.88;100881.31;4967350;28;19921;-62
2022/12/01 01:52:37;;;;;;;;;;;;;;;8.22;29.43;100889.50;4966648;28;20411;-63
2022/12/01 01:55:03;;;;;;;;;;;;;;;7.24;32.52;100850.94;4965882;28;20054;-59
2022/12/01 01:57:28;;;;;;;;;;;;;;;7.21;33.25;100868.84;4966492;28;20427;-60
2022/12/01 01:59:55;;;;;;;;;;;;;;;6.95;34.42;100876.19;4967692;28;19968;-60
2022/12/01 02:02:20;;;;;;;;;;;;;;;7.43;35.81;100934.00;4970397;28;20009;-59
2022/12/01 02:04:46;;;;;;;;;;;;;;;7.47;36.43;100949.44;4969351;28;20016;-59
2022/12/01 02:07:12;;;;;;;;;;;;;;;6.92;39.15;100933.34;4968214;28;20658;-59
2022/12/01 02:09:37;;;;;;;;;;;;;;;7.03;42.12;100975.38;4966928;28;19936;-59
2022/12/01 02:12:03;;;;;;;;;;;;;;;7.16;43.79;101003.69;4968771;28;19917;-59
2022/12/01 02:14:46;;;;;;;;;;;;;;;6.94;45.84;100993.16;4969398;28;19922;-59
2022/12/01 02:17:31;;;;;;;;;;;;;;;6.90;47.67;101027.25;4968250;28;19976;-59
2022/12/01 02:20:05;;;;;;;;;;;;;;;7.37;48.47;101057.84;4945004;28;19918;-59
2022/12/01 02:22:47;;;;;;;;;;;;;;;7.75;47.83;101080.56;4968695;28;20877;-59
2022/12/01 02:25:21;;;;;;;;;;;;;;;7.74;45.82;101058.34;4964542;28;19918;-59
2022/12/01 02:27:47;;;;;;;;;;;;;;;7.50;45.66;101035.78;4966653;28;19978;-60
2022/12/01 02:30:27;;;;;;;;;;;;;;;7.16;46.39;101004.59;4968044;28;19922;-59
2022/12/01 02:33:07;;;;;;;;;;;;;;;7.51;45.75;101028.13;4964720;28;19929;-60
2022/12/01 02:35:33;;;;;;;;;;;;;;;7.59;44.55;101019.66;4967918;28;19968;-60
2022/12/01 02:38:07;;;;;;;;;;;;;;;7.12;43.44;100983.19;4970013;28;20013;-59
2022/12/01 02:40:38;;;;;;;;;;;;;;;7.40;43.48;100992.94;4967321;28;19928;-60
2022/12/01 02:43:09;;;;;;;;;;;;;;;7.47;44.04;101010.97;4967080;28;19928;-59
2022/12/01 02:45:40;;;;;;;;;;;;;;;7.17;44.61;100987.50;4967183;28;20731;-59
2022/12/01 02:48:11;;;;;;;;;;;;;;;6.67;46.60;100963.72;4968190;28;20004;-59
2022/12/01 02:50:36;;;;;;;;;;;;;;;6.84;47.41;100993.84;4967202;28;20511;-59
2022/12/01 02:53:02;;;;;;;;;;;;;;;7.26;47.87;101026.06;4966376;28;19928;-59
2022/12/01 02:55:27;;;;;;;;;;;;;;;7.40;47.23;101034.81;4965583;28;20056;-59
2022/12/01 02:57:52;;;;;;;;;;;;;;;7.16;47.16;101013.94;4971789;28;19921;-59
2022/12/01 03:00:18;;;;;;;;;;;;;;;7.25;45.82;101014.09;4962593;28;20551;-59
2022/12/01 03:02:48;;;;;;;;;;;;;;;7.22;46.13;101006.34;4966323;28;20378;-59
2022/12/01 03:05:17;;;;;;;;;;;;;;;7.02;46.27;100996.69;4970023;28;19937;-59
2022/12/01 03:08:02;;;;;;;;;;;;;;;6.80;48.13;100990.38;4965218;28;21199;-59
2022/12/01 03:10:27;;;;;;;;;;;;;;;6.93;49.27;101016.19;4964698;28;19924;-59
2022/12/01 03:13:04;;;;;;;;;;;;;;;6.91;50.20;101028.94;4965528;28;19921;-59
2022/12/01 03:15:48;;;;;;;;;;;;;;;6.40;52.88;101009.34;4967325;28;19918;-58
2022/12/01 03:18:23;;;;;;;;;;;;;;;6.59;54.25;101037.00;4962610;28;19913;-58
2022/12/01 03:20:48;;;;;;;;;;;;;;;6.57;56.06;101050.59;4966955;28;19979;-59
2022/12/01 03:23:18;;;;;;;;;;;;;;;6.83;56.29;101074.09;4965938;28;19922;-59
2022/12/01 03:25:44;;;;;;;;;;;;;;;6.76;57.16;101087.63;4966052;28;19918;-58
2022/12/01 03:28:10;;;;;;;;;;;;;;;7.15;56.86;101110.47;4964343;28;21244;-59
2022/12/01 03:30:36;;;;;;;;;;;;;;;7.20;56.44;101115.66;4962340;28;19987;-59
2022/12/01 03:33:03;;;;;;;;;;;;;;;6.85;56.88;101075.84;4968046;28;19922;-58
2022/12/01 03:35:48;;;;;;;;;;;;;;;7.09;56.73;101088.19;4948860;28;19974;-59
2022/12/01 03:38:18;;;;;;;;;;;;;;;7.10;56.24;101089.03;4963558;28;19971;-59
2022/12/01 03:40:43;;;;;;;;;;;;;;;6.72;57.42;101058.53;4966654;28;20032;-59
2022/12/01 03:43:10;;;;;;;;;;;;;;;6.69;57.01;101054.22;4961108;28;20001;-58
2022/12/01 03:45:53;;;;;;;;;;;;;;;7.21;56.62;101087.50;4962181;28;19952;-59
2022/12/01 03:48:18;;;;;;;;;;;;;;;7.20;55.45;101066.97;4966356;28;19922;-59
2022/12/01 03:50:50;;;;;;;;;;;;;;;7.07;55.12;101046.31;4963747;28;19925;-59
2022/12/01 03:53:18;;;;;;;;;;;;;;;6.45;56.06;101007.72;4964762;28;19929;-59
2022/12/01 03:55:43;;;;;;;;;;;;;;;6.32;58.12;101024.59;4965450;28;19918;-58
2022/12/01 03:58:35;;;;;;;;;;;;;;;6.62;58.08;101057.53;4964712;28;19928;-59
2022/12/01 04:01:03;;;;;;;;;;;;;;;6.53;59.28;101071.88;4974209;28;20457;-58
2022/12/01 04:03:28;;;;;;;;;;;;;;;6.65;60.51;101084.88;4964967;28;19937;-58
2022/12/01 04:05:54;;;;;;;;;;;;;;;6.49;60.34;101082.03;4967888;28;19918;-58
2022/12/01 04:08:19;;;;;;;;;;;;;;;7.04;60.39;101117.97;4962937;28;19933;-59
2022/12/01 04:10:44;;;;;;;;;;;;;;;7.13;59.66;101118.13;4966115;28;19914;-59
2022/12/01 04:13:31;;;;;;;;;;;;;;;7.42;58.36;101125.41;4969618;28;20319;-59
2022/12/01 04:15:55;;;;;;;;;;;;;;;7.46;55.36;101083.59;4970713;28;19925;-58
2022/12/01 04:18:21;;;;;;;;;;;;;;;7.05;53.82;101042.84;4964807;28;19919;-59
2022/12/01 04:20:49;;;;;;;;;;;;;;;6.70;54.34;101020.13;4966029;28;19922;-59
2022/12/01 04:23:58;;;;;;;;;;;;;;;6.55;53.89;101014.75;4968006;28;20016;-59
2022/12/01 04:26:00;;;;;;;;;;;;;;;6.95;54.14;101040.97;4954963;28;19929;-59
2022/12/01 04:28:25;;;;;;;;;;;;;;;6.79;53.59;101029.63;4967200;28;19918;-59
2022/12/01 04:30:51;;;;;;;;;;;;;;;6.59;54.46;101024.19;4968367;28;19952;-58
2022/12/01 04:33:16;;;;;;;;;;;;;;;7.04;53.80;101046.22;4969468;28;20485;-58
2022/12/01 04:35:41;;;;;;;;;;;;;;;6.99;52.79;101036.78;4968097;28;20405;-59
2022/12/01 04:38:06;;;;;;;;;;;;;;;7.06;51.38;101031.75;4968581;28;20327;-59
2022/12/01 04:40:32;;;;;;;;;;;;;;;7.06;49.91;101018.09;4967859;28;19922;-58
2022/12/01 04:42:57;;;;;;;;;;;;;;;6.64;51.04;100986.72;4971487;28;19925;-58
2022/12/01 04:45:22;;;;;;;;;;;;;;;7.25;49.61;101029.47;4968908;28;20390;-59
2022/12/01 04:47:47;;;;;;;;;;;;;;;7.24;47.13;101017.50;4969247;28;20382;-59
2022/12/01 04:50:12;;;;;;;;;;;;;;;7.51;44.69;101027.25;4966940;28;19922;-59
2022/12/01 04:52:38;;;;;;;;;;;;;;;7.35;40.73;100985.19;4969424;28;19926;-59
2022/12/01 04:55:03;;;;;;;;;;;;;;;6.78;41.21;100945.13;4969239;28;19960;-59
2022/12/01 04:57:28;;;;;;;;;;;;;;;6.51;42.00;100925.94;4970252;28;19922;-59
2022/12/01 04:59:54;;;;;;;;;;;;;;;6.53;43.27;100954.97;4967108;28;19983;-59
2022/12/01 05:02:19;;;;;;;;;;;;;;;7.31;41.96;101009.06;4966805;28;19957;-59
2022/12/01 05:04:46;;;;;;;;;;;;;;;6.77;41.12;100963.88;4968290;28;19954;-59
2022/12/01 05:07:12;;;;;;;;;;;;;;;6.51;41.58;100953.22;4968726;28;19930;-59
2022/12/01 05:09:37;;;;;;;;;;;;;;;6.79;41.08;100977.56;4967526;28;19926;-59
2022/12/01 05:12:03;;;;;;;;;;;;;;;6.46;43.26;100956.56;4969896;28;19951;-59
2022/12/01 05:14:28;;;;;;;;;;;;;;;6.99;43.23;101012.00;4965560;28;20015;-59
2022/12/01 05:16:54;;;;;;;;;;;;;;;7.21;41.31;101027.72;4968686;28;19922;-59
2022/12/01 05:22:03;;;;;;;;;;;;;;;7.15;36.66;100986.63;4967201;28;19975;-59
2022/12/01 05:24:29;;;;;;;;;;;;;;;7.36;32.03;100983.47;4964822;28;19926;-59
2022/12/01 05:26:54;;;;;;;;;;;;;;;7.00;33.37;100947.16;4971328;28;20399;-59
2022/12/01 05:29:19;;;;;;;;;;;;;;;6.58;34.46;100914.09;4971665;28;20695;-59
2022/12/01 05:31:45;;;;;;;;;;;;;;;7.06;33.20;100952.34;4969490;28;20426;-62
2022/12/01 05:34:10;;;;;;;;;;;;;;;6.99;33.37;100950.53;4966237;28;20511;-62
2022/12/01 05:36:35;;;;;;;;;;;;;;;6.87;34.17;100940.97;4968967;28;19991;-59
2022/12/01 05:39:00;;;;;;;;;;;;;;;6.64;34.60;100943.22;4968204;28;19949;-59
2022/12/01 05:41:26;;;;;;;;;;;;;;;7.09;33.46;100975.47;4967124;28;20314;-59
2022/12/01 05:43:51;;;;;;;;;;;;;;;7.30;31.76;100989.41;4966568;28;19928;-58
2022/12/01 05:46:16;;;;;;;;;;;;;;;6.30;36.11;100920.47;4966675;28;20065;-58
2022/12/01 05:48:41;;;;;;;;;;;;;;;6.79;36.10;100972.44;4967367;28;19952;-58
2022/12/01 05:51:11;;;;;;;;;;;;;;;6.41;37.63;100970.13;4966861;28;19918;-59
2022/12/01 05:53:36;;;;;;;;;;;;;;;6.41;39.57;100975.22;4968771;28;19941;-58
2022/12/01 05:56:01;;;;;;;;;;;;;;;6.69;40.23;101018.38;4972353;28;19918;-58
2022/12/01 05:58:26;;;;;;;;;;;;;;;6.80;40.92;101025.38;4967888;28;19921;-62
2022/12/01 06:00:52;;;;;;;;;;;;;;;7.04;41.33;101036.00;4965826;28;20432;-59
2022/12/01 06:03:17;;;;;;;;;;;;;;;7.22;38.65;101047.38;4968933;28;19921;-58
2022/12/01 06:05:42;;;;;;;;;;;;;;;6.82;37.25;101009.22;4967410;28;19924;-58
2022/12/01 06:08:07;;;;;;;;;;;;;;;6.34;38.93;100975.97;4964186;28;19922;-59
2022/12/01 06:10:33;;;;;;;;;;;;;;;7.09;39.13;101029.25;4967690;28;20623;-59
2022/12/01 06:12:58;;;;;;;;;;;;;;;6.93;39.35;101014.47;4968055;28;19940;-58
2022/12/01 06:15:23;;;;;;;;;;;;;;;6.91;38.96;101008.47;4967472;28;19913;-58
2022/12/01 06:17:49;;;;;;;;;;;;;;;6.64;39.71;101002.09;4966336;28;19971;-59
2022/12/01 06:20:14;;;;;;;;;;;;;;;7.02;39.39;101027.41;4966595;28;20417;-58
2022/12/01 06:22:39;;;;;;;;;;;;;;;6.85;36.67;101014.38;4966981;28;20030;-58
2022/12/01 06:25:05;;;;;;;;;;;;;;;6.73;37.55;101003.06;4969421;28;19929;-58
2022/12/01 06:27:30;;;;;;;;;;;;;;;6.36;38.93;100987.09;4967879;28;20417;-59
2022/12/01 06:29:55;;;;;;;;;;;;;;;6.19;42.98;100997.91;4965052;28;19967;-59
2022/12/01 06:32:20;;;;;;;;;;;;;;;6.01;46.83;101018.88;4968680;28;19929;-58
2022/12/01 06:34:46;;;;;;;;;;;;;;;7.35;43.71;101113.34;4970124;28;19924;-58
2022/12/01 06:37:11;;;;;;;;;;;;;;;7.82;36.05;101099.47;4967528;28;20005;-58
2022/12/01 06:39:36;;;;;;;;;;;;;;;6.60;36.41;100997.75;4964094;28;19955;-59
2022/12/01 06:42:01;;;;;;;;;;;;;;;7.07;34.72;101009.56;4968151;28;19929;-59
2022/12/01 06:44:27;;;;;;;;;;;;;;;7.45;30.84;101025.47;4968611;28;19926;-59
2022/12/01 06:46:52;;;;;;;;;;;;;;;7.13;31.23;100974.63;4968479;28;19965;-59
2022/12/01 06:49:17;;;;;;;;;;;;;;;7.38;28.67;100974.97;4965714;28;20665;-58
2022/12/01 06:51:43;;;;;;;;;;;;;;;7.38;27.26;100954.47;4965666;28;19918;-59
2022/12/01 06:54:09;;;;;;;;;;;;;;;7.80;25.41;100960.94;4967258;28;20020;-62
2022/12/01 06:56:35;;;;;;;;;;;;;;;7.07;27.47;100897.72;4966327;28;19984;-58
2022/12/01 06:59:00;;;;;;;;;;;;;;;7.21;26.64;100894.47;4966542;28;19921;-61
2022/12/01 07:01:25;;;;;;;;;;;;;;;7.11;26.60;100889.19;4968015;28;20001;-61
2022/12/01 07:03:50;;;;;;;;;;;;;;;6.54;29.11;100858.56;4966338;28;19917;-62
2022/12/01 07:06:16;;;;;;;;;;;;;;;7.00;27.93;100895.03;4965226;28;19918;-59
2022/12/01 07:08:41;;;;;;;;;;;;;;;6.97;27.44;100893.28;4966097;28;19918;-58
2022/12/01 07:11:07;;;;;;;;;;;;;;;7.02;28.63;100898.47;4966445;28;20538;-58
2022/12/01 07:13:33;;;;;;;;;;;;;;;7.52;26.12;100929.84;4967790;28;20405;-58
2022/12/01 07:15:58;;;;;;;;;;;;;;;7.10;26.34;100892.63;4967308;28;20006;-58
2022/12/01 07:18:23;;;;;;;;;;;;;;;7.27;25.33;100885.13;4963570;28;19925;-59
2022/12/01 07:20:48;;;;;;;;;;;;;;;6.98;27.66;100860.84;4966664;28;20417;-59
2022/12/01 07:23:13;;;;;;;;;;;;;;;7.15;26.40;100879.00;4963283;28;20283;-58
2022/12/01 07:25:39;;;;;;;;;;;;;;;6.47;29.99;100837.13;4969817;28;19925;-58
2022/12/01 07:28:04;;;;;;;;;;;;;;;7.24;26.84;100902.19;4964498;28;19972;-58
2022/12/01 07:30:29;;;;;;;;;;;;;;;6.77;29.35;100869.13;4964412;28;19925;-58
2022/12/01 07:32:54;;;;;;;;;;;;;;;6.68;29.50;100882.66;4968374;28;20322;-58
2022/12/01 07:35:20;;;;;;;;;;;;;;;6.95;29.29;100910.34;4963200;28;20321;-58
2022/12/01 07:37:45;;;;;;;;;;;;;;;6.14;32.38;100868.22;4964586;28;19925;-58
2022/12/01 07:40:11;;;;;;;;;;;;;;;6.41;31.07;100894.22;4968229;28;20374;-58
2022/12/01 07:42:39;;;;;;;;;;;;;;;6.97;29.70;100949.66;4967092;28;20373;-58
2022/12/01 07:45:05;;;;;;;;;;;;;;;7.20;28.51;100954.22;4970250;28;19953;-58
2022/12/01 07:47:30;;;;;;;;;;;;;;;7.13;28.24;100933.63;4966500;28;20024;-60
2022/12/01 07:49:55;;;;;;;;;;;;;;;6.84;29.49;100905.09;4971039;28;20255;-58
2022/12/01 07:52:20;;;;;;;;;;;;;;;6.44;31.29;100888.28;4969475;28;19948;-57
2022/12/01 07:54:45;;;;;;;;;;;;;;;6.91;29.64;100924.81;4973460;28;20020;-57
2022/12/01 07:57:13;;;;;;;;;;;;;;;7.09;28.12;100931.00;4968347;28;19972;-58
2022/12/01 07:59:38;;;;;;;;;;;;;;;6.56;28.94;100893.56;4969250;28;20001;-57
2022/12/01 08:02:04;;;;;;;;;;;;;;;6.96;28.96;100921.47;4969886;28;20005;-57
2022/12/01 08:04:29;;;;;;;;;;;;;;;6.53;30.17;100901.22;4969897;28;19914;-58
2022/12/01 08:06:54;;;;;;;;;;;;;;;6.53;30.48;100901.22;4970250;28;19922;-57
2022/12/01 08:09:19;;;;;;;;;;;;;;;6.26;31.89;100878.63;4964891;28;19925;-58
2022/12/01 08:11:45;;;;;;;;;;;;;;;7.07;28.80;100932.69;4970921;28;20366;-58
2022/12/01 08:14:10;;;;;;;;;;;;;;;7.27;27.17;100921.00;4969211;28;20356;-58
2022/12/01 08:16:35;;;;;;;;;;;;;;;6.81;27.63;100881.13;4971529;28;20310;-58
2022/12/01 08:19:00;;;;;;;;;;;;;;;6.49;30.78;100872.16;4967031;28;19937;-60
2022/12/01 08:21:26;;;;;;;;;;;;;;;6.43;30.74;100881.44;4968422;28;20014;-58
2022/12/01 08:23:52;;;;;;;;;;;;;;;6.98;28.19;100923.22;4969509;28;19918;-58
2022/12/01 08:26:18;;;;;;;;;;;;;;;6.90;28.04;100909.44;4969217;28;20648;-58
2022/12/01 08:28:43;;;;;;;;;;;;;;;7.31;26.71;100909.09;4972711;28;19919;-58
2022/12/01 08:31:13;;;;;;;;;;;;;;;7.10;27.23;100887.50;4969725;28;19921;-58
2022/12/01 08:33:38;;;;;;;;;;;;;;;7.19;26.52;100875.66;4969362;28;19922;-58
2022/12/01 08:36:04;;;;;;;;;;;;;;;7.17;26.64;100861.94;4966250;28;19921;-58
2022/12/01 08:38:29;;;;;;;;;;;;;;;7.68;25.19;100851.38;4972495;28;19918;-59
2022/12/01 08:40:58;;;;;;;;;;;;;;;7.21;27.93;100810.75;4971455;28;20029;-58
2022/12/01 08:43:23;;;;;;;;;;;;;;;7.79;25.94;100827.56;4971050;28;19932;-58
2022/12/01 08:45:48;;;;;;;;;;;;;;;7.67;27.32;100797.53;4968428;28;19918;-61
2022/12/01 08:48:13;;;;;;;;;;;;;;;7.31;29.63;100770.69;4970499;28;19922;-58
2022/12/01 08:50:38;;;;;;;;;;;;;;;7.09;31.01;100757.69;4969165;28;19918;-58
2022/12/01 08:53:04;;;;;;;;;;;;;;;7.23;30.06;100777.44;4971209;28;19918;-58
2022/12/01 08:55:29;;;;;;;;;;;;;;;6.90;31.22;100781.38;4970277;28;19918;-57
2022/12/01 08:57:54;;;;;;;;;;;;;;;6.46;33.37;100785.09;4967825;28;19961;-58
2022/12/01 09:00:19;;;;;;;;;;;;;;;5.64;35.31;100771.91;4968346;28;19918;-58
2022/12/01 09:02:45;;;;;;;;;;;;;;;5.73;33.51;100802.72;4971458;28;19914;-57
2022/12/01 09:05:10;;;;;;;;;;;;;;;5.76;32.80;100830.03;4968667;28;19918;-58
2022/12/01 09:07:35;;;;;;;;;;;;;;;5.55;33.51;100843.31;4968973;28;20302;-58
2022/12/01 09:10:00;;;;;;;;;;;;;;;6.01;32.51;100890.16;4967701;28;19929;-58
2022/12/01 09:12:27;;;;;;;;;;;;;;;5.65;34.15;100866.47;4968440;28;19971;-57
2022/12/01 09:14:52;;;;;;;;;;;;;;;5.73;33.36;100881.97;4970158;28;20549;-58
2022/12/01 09:17:17;;;;;;;;;;;;;;;5.76;34.49;100887.13;4969344;28;19921;-58
2022/12/01 09:19:43;;;;;;;;;;;;;;;5.98;32.84;100892.66;4968037;28;19991;-60
2022/12/01 09:22:08;;;;;;;;;;;;;;;5.48;35.10;100875.56;4970884;28;19921;-58
2022/12/01 09:24:34;;;;;;;;;;;;;;;5.78;34.45;100882.91;4967928;28;19979;-58
2022/12/01 09:26:59;;;;;;;;;;;;;;;5.97;33.41;100890.94;4967824;28;19929;-57
2022/12/01 09:29:25;;;;;;;;;;;;;;;6.38;32.17;100903.53;4969444;28;19922;-58
2022/12/01 09:31:50;;;;;;;;;;;;;;;6.70;30.94;100904.91;4967798;28;19924;-58
2022/12/01 09:34:17;;;;;;;;;;;;;;;7.25;28.89;100903.88;4967185;28;19991;-58
2022/12/01 09:36:42;;;;;;;;;;;;;;;7.44;29.89;100852.00;4967323;28;20360;-58
2022/12/01 09:39:10;;;;;;;;;;;;;;;7.28;35.71;100793.75;4968854;28;19922;-58
2022/12/01 09:41:37;;;;;;;;;;;;;;;7.49;37.45;100757.19;4968613;28;19917;-59
2022/12/01 09:44:14;;;;;;;;;;;;;;;7.43;46.04;100704.16;4966643;28;20048;-58
2022/12/01 09:46:42;;;;;;;;;;;;;;;7.34;48.43;100650.25;4966510;28;19940;-58
2022/12/01 09:49:12;;;;;;;;;;;;;;;6.99;51.53;100627.78;4969766;28;19917;-58
2022/12/01 09:51:37;;;;;;;;;;;;;;;6.81;52.70;100619.94;4969446;28;20031;-58
2022/12/01 09:54:02;;;;;;;;;;;;;;;7.43;50.64;100634.09;4967459;28;19987;-58
2022/12/01 09:56:29;;;;;;;;;;;;;;;7.02;54.61;100607.31;4970096;28;19953;-58
2022/12/01 09:58:58;;;;;;;;;;;;;;;7.44;52.32;100618.75;4963674;28;19914;-58
2022/12/01 10:01:31;;;;;;;;;;;;;;;7.52;53.75;100604.25;4966903;28;19967;-58
2022/12/01 10:03:57;;;;;;;;;;;;;;;6.55;59.17;100569.34;4967938;28;19953;-60
2022/12/01 10:06:25;;;;;;;;;;;;;;;7.11;54.15;100599.69;4965424;28;20386;-59
2022/12/01 10:09:02;;;;;;;;;;;;;;;7.75;53.78;100601.84;4965263;28;19918;-58
2022/12/01 10:11:32;;;;;;;;;;;;;;;6.65;62.52;100550.66;4964179;28;20523;-58
2022/12/01 10:13:58;;;;;;;;;;;;;;;6.96;57.33;100566.31;4968057;28;19952;-58
2022/12/01 10:16:26;;;;;;;;;;;;;;;7.34;54.36;100583.63;4966921;28;20386;-58
2022/12/01 10:18:51;;;;;;;;;;;;;;;7.75;55.28;100606.09;4966149;28;20014;-58
2022/12/01 10:21:22;;;;;;;;;;;;;;;8.18;57.40;100601.16;4968221;28;20012;-58
2022/12/01 10:24:03;;;;;;;;;;;;;;;7.20;68.12;100528.88;4967809;28;20025;-58
2022/12/01 10:26:28;;;;;;;;;;;;;;;7.56;64.53;100533.38;4970645;28;19933;-59
2022/12/01 10:29:00;;;;;;;;;;;;;;;6.57;66.68;100506.25;4967303;28;19918;-59
2022/12/01 10:31:28;;;;;;;;;;;;;;;6.73;63.61;100530.28;4966956;28;19922;-59
2022/12/01 10:33:56;;;;;;;;;;;;;;;7.03;60.73;100552.69;4967233;28;19999;-58
2022/12/01 10:36:21;;;;;;;;;;;;;;;6.35;61.30;100535.88;4965340;28;19940;-59
2022/12/01 10:38:46;;;;;;;;;;;;;;;7.41;54.10;100594.78;4966128;28;20672;-58
2022/12/01 10:41:12;;;;;;;;;;;;;;;6.69;58.74;100566.91;4967340;28;19918;-59
2022/12/01 10:43:38;;;;;;;;;;;;;;;6.58;56.56;100571.94;4967525;28;19957;-58
2022/12/01 10:46:24;;;;;;;;;;;;;;;6.61;54.52;100584.75;4966352;28;21696;-58
2022/12/01 10:48:56;;;;;;;;;;;;;;;6.69;51.24;100608.72;4965681;28;20008;-59
2022/12/01 10:51:21;;;;;;;;;;;;;;;6.61;52.72;100612.06;4968379;28;19918;-59
2022/12/01 10:53:47;;;;;;;;;;;;;;;6.90;50.82;100631.13;4965440;28;20163;-58
2022/12/01 10:56:17;;;;;;;;;;;;;;;6.64;51.63;100620.63;4963666;28;19940;-59
2022/12/01 10:58:50;;;;;;;;;;;;;;;6.31;52.13;100607.47;4965711;28;19918;-58
2022/12/01 11:01:18;;;;;;;;;;;;;;;7.50;46.13;100667.50;4968440;28;20125;-59
2022/12/01 11:03:47;;;;;;;;;;;;;;;7.84;50.12;100643.75;4963983;28;19918;-59
2022/12/01 11:06:12;;;;;;;;;;;;;;;6.96;56.05;100591.91;4966391;28;19918;-59
2022/12/01 11:08:40;;;;;;;;;;;;;;;7.26;56.17;100591.28;4965004;28;19918;-58
2022/12/01 11:11:05;;;;;;;;;;;;;;;7.21;57.58;100566.50;4951178;28;19922;-59
2022/12/01 11:13:33;;;;;;;;;;;;;;;6.78;60.17;100545.66;4967658;28;20459;-59
2022/12/01 11:15:59;;;;;;;;;;;;;;;6.66;59.33;100547.28;4964694;28;19944;-59
2022/12/01 11:18:32;;;;;;;;;;;;;;;7.81;52.94;100593.31;4966101;28;20348;-59
2022/12/01 11:21:06;;;;;;;;;;;;;;;7.68;56.00;100571.88;4965364;28;19925;-59
2022/12/01 11:23:34;;;;;;;;;;;;;;;7.86;58.56;100562.56;4970063;28;19918;-60
2022/12/01 11:26:04;;;;;;;;;;;;;;;7.91;61.98;100536.09;4964618;28;19945;-59
2022/12/01 11:28:29;;;;;;;;;;;;;;;7.70;66.47;100506.06;4967351;28;19928;-59
2022/12/01 11:30:59;;;;;;;;;;;;;;;7.99;65.61;100499.34;4967109;28;19918;-59
2022/12/01 11:33:24;;;;;;;;;;;;;;;8.20;67.87;100490.81;4968256;28;20009;-59
2022/12/01 11:35:49;;;;;;;;;;;;;;;7.78;73.74;100459.06;4966485;28;20029;-59
2022/12/01 11:38:20;;;;;;;;;;;;;;;8.04;72.40;100464.28;4966684;28;20711;-59
2022/12/01 11:40:49;;;;;;;;;;;;;;;7.28;76.85;100440.97;4966777;28;19918;-59
2022/12/01 11:43:22;;;;;;;;;;;;;;;7.22;74.68;100446.06;4966909;28;19928;-60
2022/12/01 11:45:47;;;;;;;;;;;;;;;7.52;71.53;100460.69;4965602;28;20017;-59
2022/12/01 11:48:14;;;;;;;;;;;;;;;7.29;71.51;100462.31;4967099;28;20005;-59
2022/12/01 11:50:40;;;;;;;;;;;;;;;7.55;70.52;100470.13;4966507;28;19918;-59
2022/12/01 11:53:40;;;;;;;;;;;;;;;7.36;71.52;100463.19;4968452;28;20298;-60
2022/12/01 11:56:16;;;;;;;;;;;;;;;7.21;72.39;100458.88;4924765;29;19918;-59
2022/12/01 11:58:42;;;;;;;;;;;;;;;7.53;70.43;100471.84;4959091;28;19917;-59
2022/12/01 12:01:13;;;;;;;;;;;;;;;7.59;71.13;100465.84;4968914;28;19924;-59
2022/12/01 12:03:43;;;;;;;;;;;;;;;7.38;72.32;100462.34;4965370;28;19975;-59
2022/12/01 12:06:16;;;;;;;;;;;;;;;6.74;73.27;100446.63;4963837;28;19972;-60
2022/12/01 12:08:49;;;;;;;;;;;;;;;7.58;67.04;100482.09;4965653;28;19937;-59
2022/12/01 12:11:14;;;;;;;;;;;;;;;7.43;69.66;100475.19;4963021;28;19922;-59
2022/12/01 12:13:59;;;;;;;;;;;;;;;8.10;67.54;100489.97;4964877;28;19953;-59
2022/12/01 12:16:30;;;;;;;;;;;;;;;7.74;72.10;100460.78;4967361;28;20576;-59
2022/12/01 12:19:05;;;;;;;;;;;;;;;8.03;69.42;100463.44;4966178;28;20004;-59
2022/12/01 12:21:37;;;;;;;;;;;;;;;7.90;73.73;100454.84;4969279;28;19917;-59
2022/12/01 12:24:23;;;;;;;;;;;;;;;7.29;77.21;100414.47;4966651;28;19922;-59
2022/12/01 12:27:07;;;;;;;;;;;;;;;7.32;75.27;100423.88;4946699;28;19969;-60
2022/12/01 12:29:52;;;;;;;;;;;;;;;6.56;77.95;100414.06;4966265;28;20417;-59
2022/12/01 12:32:33;;;;;;;;;;;;;;;7.26;70.84;100441.81;4969829;28;19921;-59
2022/12/01 12:35:08;;;;;;;;;;;;;;;7.37;71.08;100447.84;4969589;28;19918;-59
2022/12/01 12:37:47;;;;;;;;;;;;;;;7.10;72.00;100443.44;4969626;28;19918;-60
2022/12/01 12:40:15;;;;;;;;;;;;;;;6.97;71.46;100445.06;4966620;28;19965;-59
2022/12/01 12:42:58;;;;;;;;;;;;;;;6.57;72.48;100437.13;4966821;28;19925;-59
2022/12/01 12:45:39;;;;;;;;;;;;;;;6.64;70.25;100454.25;4970500;28;19918;-59
2022/12/01 12:48:13;;;;;;;;;;;;;;;6.17;70.32;100452.13;4971700;28;19975;-59
2022/12/01 12:50:41;;;;;;;;;;;;;;;6.55;65.74;100479.78;4971048;28;19976;-59
2022/12/01 12:53:12;;;;;;;;;;;;;;;6.17;67.02;100475.16;4970660;28;19975;-60
2022/12/01 12:55:39;;;;;;;;;;;;;;;6.69;62.25;100505.47;4967948;28;19922;-60